sensor_id;sensor_type;location;lat;lon;timestamp;P1;durP1;ratioP1;P2;durP2;ratioP2
78871;SDS011;68247;43.514;1.502;2023-07-30T00:00:39;2.97;;;1.20;;
78871;SDS011;68247;43.514;1.502;2023-07-30T00:03:04;3.78;;;1.30;;
78871;SDS011;68247;43.514;1.502;2023-07-30T00:05:30;4.57;;;1.30;;
78871;SDS011;68247;43.514;1.502;2023-07-30T00:07:56;3.27;;;1.57;;
78871;SDS011;68247;43.514;1.502;2023-07-30T00:10:21;3.72;;;1.77;;
78871;SDS011;68247;43.514;1.502;2023-07-30T00:12:47;4.30;;;1.43;;
78871;SDS011;68247;43.514;1.502;2023-07-30T00:15:12;4.13;;;1.33;;
78871;SDS011;68247;43.514;1.502;2023-07-30T00:17:38;3.78;;;1.48;;
78871;SDS011;68247;43.514;1.502;2023-07-30T00:20:04;4.13;;;1.55;;
78871;SDS011;68247;43.514;1.502;2023-07-30T00:22:31;3.30;;;1.30;;
78871;SDS011;68247;43.514;1.502;2023-07-30T00:24:57;3.35;;;1.40;;
78871;SDS011;68247;43.514;1.502;2023-07-30T00:27:22;2.70;;;1.20;;
78871;SDS011;68247;43.514;1.502;2023-07-30T00:29:48;2.73;;;1.40;;
78871;SDS011;68247;43.514;1.502;2023-07-30T00:32:13;3.53;;;1.47;;
78871;SDS011;68247;43.514;1.502;2023-07-30T00:34:41;2.92;;;1.35;;
78871;SDS011;68247;43.514;1.502;2023-07-30T00:37:06;3.67;;;1.37;;
78871;SDS011;68247;43.514;1.502;2023-07-30T00:39:32;3.30;;;1.58;;
78871;SDS011;68247;43.514;1.502;2023-07-30T00:41:57;3.03;;;1.33;;
78871;SDS011;68247;43.514;1.502;2023-07-30T00:44:22;3.97;;;1.60;;
78871;SDS011;68247;43.514;1.502;2023-07-30T00:46:48;3.30;;;1.58;;
78871;SDS011;68247;43.514;1.502;2023-07-30T00:49:14;2.80;;;1.13;;
78871;SDS011;68247;43.514;1.502;2023-07-30T00:51:39;3.60;;;1.33;;
78871;SDS011;68247;43.514;1.502;2023-07-30T00:54:06;3.87;;;1.30;;
78871;SDS011;68247;43.514;1.502;2023-07-30T00:56:31;5.35;;;1.52;;
78871;SDS011;68247;43.514;1.502;2023-07-30T00:58:57;2.93;;;1.27;;
78871;SDS011;68247;43.514;1.502;2023-07-30T01:01:22;2.70;;;1.20;;
78871;SDS011;68247;43.514;1.502;2023-07-30T01:03:48;3.15;;;1.30;;
78871;SDS011;68247;43.514;1.502;2023-07-30T01:06:15;3.03;;;1.47;;
78871;SDS011;68247;43.514;1.502;2023-07-30T01:08:40;2.45;;;1.27;;
78871;SDS011;68247;43.514;1.502;2023-07-30T01:11:06;4.37;;;1.20;;
78871;SDS011;68247;43.514;1.502;2023-07-30T01:13:33;2.65;;;1.35;;
78871;SDS011;68247;43.514;1.502;2023-07-30T01:15:58;3.40;;;1.08;;
78871;SDS011;68247;43.514;1.502;2023-07-30T01:18:24;3.43;;;1.50;;
78871;SDS011;68247;43.514;1.502;2023-07-30T01:20:53;3.67;;;1.40;;
78871;SDS011;68247;43.514;1.502;2023-07-30T01:23:18;3.88;;;1.45;;
78871;SDS011;68247;43.514;1.502;2023-07-30T01:25:44;5.90;;;1.47;;
78871;SDS011;68247;43.514;1.502;2023-07-30T01:28:10;4.37;;;1.40;;
78871;SDS011;68247;43.514;1.502;2023-07-30T01:30:38;3.17;;;1.50;;
78871;SDS011;68247;43.514;1.502;2023-07-30T01:33:06;3.70;;;1.40;;
78871;SDS011;68247;43.514;1.502;2023-07-30T01:35:32;3.20;;;1.50;;
78871;SDS011;68247;43.514;1.502;2023-07-30T01:37:57;3.72;;;1.50;;
78871;SDS011;68247;43.514;1.502;2023-07-30T01:40:23;3.17;;;1.47;;
78871;SDS011;68247;43.514;1.502;2023-07-30T01:42:49;4.75;;;1.33;;
78871;SDS011;68247;43.514;1.502;2023-07-30T01:45:15;4.27;;;1.40;;
78871;SDS011;68247;43.514;1.502;2023-07-30T01:47:40;4.15;;;1.42;;
78871;SDS011;68247;43.514;1.502;2023-07-30T01:50:06;3.53;;;1.60;;
78871;SDS011;68247;43.514;1.502;2023-07-30T01:52:31;3.53;;;1.93;;
78871;SDS011;68247;43.514;1.502;2023-07-30T01:54:57;3.30;;;1.60;;
78871;SDS011;68247;43.514;1.502;2023-07-30T01:57:23;3.30;;;1.48;;
78871;SDS011;68247;43.514;1.502;2023-07-30T01:59:49;3.00;;;1.50;;
78871;SDS011;68247;43.514;1.502;2023-07-30T02:02:14;3.97;;;1.60;;
78871;SDS011;68247;43.514;1.502;2023-07-30T02:04:40;4.50;;;1.40;;
78871;SDS011;68247;43.514;1.502;2023-07-30T02:07:05;3.63;;;1.63;;
78871;SDS011;68247;43.514;1.502;2023-07-30T02:09:31;3.73;;;1.30;;
78871;SDS011;68247;43.514;1.502;2023-07-30T02:11:56;2.83;;;1.20;;
78871;SDS011;68247;43.514;1.502;2023-07-30T02:14:22;6.83;;;1.70;;
78871;SDS011;68247;43.514;1.502;2023-07-30T02:16:47;5.22;;;2.08;;
78871;SDS011;68247;43.514;1.502;2023-07-30T02:19:12;4.17;;;1.30;;
78871;SDS011;68247;43.514;1.502;2023-07-30T02:21:38;4.47;;;1.43;;
78871;SDS011;68247;43.514;1.502;2023-07-30T02:24:07;3.63;;;1.50;;
78871;SDS011;68247;43.514;1.502;2023-07-30T02:26:35;3.80;;;1.77;;
78871;SDS011;68247;43.514;1.502;2023-07-30T02:29:00;3.27;;;1.60;;
78871;SDS011;68247;43.514;1.502;2023-07-30T02:31:26;4.28;;;1.55;;
78871;SDS011;68247;43.514;1.502;2023-07-30T02:33:51;3.93;;;1.30;;
78871;SDS011;68247;43.514;1.502;2023-07-30T02:36:17;3.70;;;1.70;;
78871;SDS011;68247;43.514;1.502;2023-07-30T02:38:42;4.10;;;1.83;;
78871;SDS011;68247;43.514;1.502;2023-07-30T02:41:08;5.38;;;1.73;;
78871;SDS011;68247;43.514;1.502;2023-07-30T02:43:33;3.37;;;1.40;;
78871;SDS011;68247;43.514;1.502;2023-07-30T02:45:58;4.20;;;1.43;;
78871;SDS011;68247;43.514;1.502;2023-07-30T02:48:24;3.93;;;1.80;;
78871;SDS011;68247;43.514;1.502;2023-07-30T02:50:49;2.88;;;1.60;;
78871;SDS011;68247;43.514;1.502;2023-07-30T02:53:15;4.50;;;1.87;;
78871;SDS011;68247;43.514;1.502;2023-07-30T02:55:40;4.30;;;1.43;;
78871;SDS011;68247;43.514;1.502;2023-07-30T02:58:05;5.00;;;1.60;;
78871;SDS011;68247;43.514;1.502;2023-07-30T03:00:31;4.07;;;1.73;;
78871;SDS011;68247;43.514;1.502;2023-07-30T03:02:56;4.85;;;1.70;;
78871;SDS011;68247;43.514;1.502;2023-07-30T03:05:22;7.33;;;2.30;;
78871;SDS011;68247;43.514;1.502;2023-07-30T03:07:47;5.57;;;1.90;;
78871;SDS011;68247;43.514;1.502;2023-07-30T03:10:12;3.97;;;1.73;;
78871;SDS011;68247;43.514;1.502;2023-07-30T03:12:38;4.60;;;1.77;;
78871;SDS011;68247;43.514;1.502;2023-07-30T03:15:03;5.57;;;1.50;;
78871;SDS011;68247;43.514;1.502;2023-07-30T03:17:29;3.53;;;1.67;;
78871;SDS011;68247;43.514;1.502;2023-07-30T03:19:54;4.82;;;1.35;;
78871;SDS011;68247;43.514;1.502;2023-07-30T03:22:20;4.33;;;1.50;;
78871;SDS011;68247;43.514;1.502;2023-07-30T03:24:46;3.70;;;1.50;;
78871;SDS011;68247;43.514;1.502;2023-07-30T03:27:12;2.90;;;1.33;;
78871;SDS011;68247;43.514;1.502;2023-07-30T03:29:38;4.73;;;1.27;;
78871;SDS011;68247;43.514;1.502;2023-07-30T03:32:03;5.53;;;1.40;;
78871;SDS011;68247;43.514;1.502;2023-07-30T03:34:29;4.63;;;1.47;;
78871;SDS011;68247;43.514;1.502;2023-07-30T03:36:54;3.73;;;1.53;;
78871;SDS011;68247;43.514;1.502;2023-07-30T03:39:20;4.32;;;1.48;;
78871;SDS011;68247;43.514;1.502;2023-07-30T03:41:45;5.30;;;2.40;;
78871;SDS011;68247;43.514;1.502;2023-07-30T03:44:11;4.40;;;1.67;;
78871;SDS011;68247;43.514;1.502;2023-07-30T03:46:36;5.67;;;1.87;;
78871;SDS011;68247;43.514;1.502;2023-07-30T03:49:02;4.13;;;1.33;;
78871;SDS011;68247;43.514;1.502;2023-07-30T03:51:27;4.33;;;1.80;;
78871;SDS011;68247;43.514;1.502;2023-07-30T03:53:53;4.70;;;1.48;;
78871;SDS011;68247;43.514;1.502;2023-07-30T03:56:18;5.23;;;1.50;;
78871;SDS011;68247;43.514;1.502;2023-07-30T03:58:44;4.30;;;1.77;;
78871;SDS011;68247;43.514;1.502;2023-07-30T04:01:09;5.77;;;1.60;;
78871;SDS011;68247;43.514;1.502;2023-07-30T04:03:35;5.75;;;1.60;;
78871;SDS011;68247;43.514;1.502;2023-07-30T04:06:00;5.07;;;1.57;;
78871;SDS011;68247;43.514;1.502;2023-07-30T04:08:26;4.57;;;1.33;;
78871;SDS011;68247;43.514;1.502;2023-07-30T04:10:53;4.63;;;1.60;;
78871;SDS011;68247;43.514;1.502;2023-07-30T04:13:18;4.50;;;1.73;;
78871;SDS011;68247;43.514;1.502;2023-07-30T04:15:44;4.35;;;1.50;;
78871;SDS011;68247;43.514;1.502;2023-07-30T04:18:09;5.20;;;1.73;;
78871;SDS011;68247;43.514;1.502;2023-07-30T04:20:34;3.97;;;1.70;;
78871;SDS011;68247;43.514;1.502;2023-07-30T04:23:00;4.50;;;1.60;;
78871;SDS011;68247;43.514;1.502;2023-07-30T04:25:25;4.43;;;1.63;;
78871;SDS011;68247;43.514;1.502;2023-07-30T04:27:51;4.37;;;1.63;;
78871;SDS011;68247;43.514;1.502;2023-07-30T04:30:16;3.33;;;1.50;;
78871;SDS011;68247;43.514;1.502;2023-07-30T04:32:41;3.97;;;1.60;;
78871;SDS011;68247;43.514;1.502;2023-07-30T04:35:07;4.55;;;1.70;;
78871;SDS011;68247;43.514;1.502;2023-07-30T04:37:33;6.10;;;1.77;;
78871;SDS011;68247;43.514;1.502;2023-07-30T04:39:58;3.87;;;1.70;;
78871;SDS011;68247;43.514;1.502;2023-07-30T04:42:23;5.13;;;1.70;;
78871;SDS011;68247;43.514;1.502;2023-07-30T04:44:49;6.67;;;1.60;;
78871;SDS011;68247;43.514;1.502;2023-07-30T04:47:14;5.30;;;1.70;;
78871;SDS011;68247;43.514;1.502;2023-07-30T04:49:40;5.37;;;1.70;;
78871;SDS011;68247;43.514;1.502;2023-07-30T04:52:06;4.25;;;2.00;;
78871;SDS011;68247;43.514;1.502;2023-07-30T04:54:33;4.80;;;1.60;;
78871;SDS011;68247;43.514;1.502;2023-07-30T04:56:58;4.47;;;1.73;;
78871;SDS011;68247;43.514;1.502;2023-07-30T04:59:24;5.47;;;1.50;;
78871;SDS011;68247;43.514;1.502;2023-07-30T05:01:49;5.90;;;1.53;;
78871;SDS011;68247;43.514;1.502;2023-07-30T05:04:15;5.30;;;1.30;;
78871;SDS011;68247;43.514;1.502;2023-07-30T05:06:40;4.17;;;1.90;;
78871;SDS011;68247;43.514;1.502;2023-07-30T05:09:06;5.37;;;1.70;;
78871;SDS011;68247;43.514;1.502;2023-07-30T05:11:31;6.80;;;2.08;;
78871;SDS011;68247;43.514;1.502;2023-07-30T05:13:57;6.27;;;1.90;;
78871;SDS011;68247;43.514;1.502;2023-07-30T05:16:22;6.50;;;1.90;;
78871;SDS011;68247;43.514;1.502;2023-07-30T05:18:47;5.70;;;1.77;;
78871;SDS011;68247;43.514;1.502;2023-07-30T05:21:13;5.30;;;1.80;;
78871;SDS011;68247;43.514;1.502;2023-07-30T05:23:38;5.30;;;1.50;;
78871;SDS011;68247;43.514;1.502;2023-07-30T05:26:04;6.30;;;1.73;;
78871;SDS011;68247;43.514;1.502;2023-07-30T05:28:29;5.77;;;2.10;;
78871;SDS011;68247;43.514;1.502;2023-07-30T05:30:54;3.90;;;1.60;;
78871;SDS011;68247;43.514;1.502;2023-07-30T05:33:20;6.23;;;1.80;;
78871;SDS011;68247;43.514;1.502;2023-07-30T05:35:45;5.82;;;1.95;;
78871;SDS011;68247;43.514;1.502;2023-07-30T05:38:12;5.83;;;2.03;;
78871;SDS011;68247;43.514;1.502;2023-07-30T05:40:38;4.07;;;1.77;;
78871;SDS011;68247;43.514;1.502;2023-07-30T05:43:03;6.07;;;1.70;;
78871;SDS011;68247;43.514;1.502;2023-07-30T05:45:29;5.87;;;1.93;;
78871;SDS011;68247;43.514;1.502;2023-07-30T05:47:54;4.63;;;1.80;;
78871;SDS011;68247;43.514;1.502;2023-07-30T05:50:20;4.70;;;1.83;;
78871;SDS011;68247;43.514;1.502;2023-07-30T05:52:45;5.00;;;1.73;;
78871;SDS011;68247;43.514;1.502;2023-07-30T05:55:11;4.67;;;1.50;;
78871;SDS011;68247;43.514;1.502;2023-07-30T05:57:36;5.90;;;1.73;;
78871;SDS011;68247;43.514;1.502;2023-07-30T06:00:02;4.37;;;1.67;;
78871;SDS011;68247;43.514;1.502;2023-07-30T06:02:27;4.43;;;1.70;;
78871;SDS011;68247;43.514;1.502;2023-07-30T06:04:53;6.20;;;1.85;;
78871;SDS011;68247;43.514;1.502;2023-07-30T06:07:18;5.47;;;1.70;;
78871;SDS011;68247;43.514;1.502;2023-07-30T06:09:44;5.93;;;1.50;;
78871;SDS011;68247;43.514;1.502;2023-07-30T06:12:10;6.63;;;1.75;;
78871;SDS011;68247;43.514;1.502;2023-07-30T06:14:36;3.60;;;1.63;;
78871;SDS011;68247;43.514;1.502;2023-07-30T06:17:01;4.70;;;1.60;;
78871;SDS011;68247;43.514;1.502;2023-07-30T06:19:27;4.53;;;1.65;;
78871;SDS011;68247;43.514;1.502;2023-07-30T06:21:52;5.60;;;1.83;;
78871;SDS011;68247;43.514;1.502;2023-07-30T06:24:18;4.15;;;1.70;;
78871;SDS011;68247;43.514;1.502;2023-07-30T06:26:43;4.37;;;1.90;;
78871;SDS011;68247;43.514;1.502;2023-07-30T06:29:08;7.43;;;2.67;;
78871;SDS011;68247;43.514;1.502;2023-07-30T06:31:34;5.87;;;1.63;;
78871;SDS011;68247;43.514;1.502;2023-07-30T06:33:59;4.10;;;1.60;;
78871;SDS011;68247;43.514;1.502;2023-07-30T06:36:25;5.63;;;1.97;;
78871;SDS011;68247;43.514;1.502;2023-07-30T06:38:50;3.80;;;1.70;;
78871;SDS011;68247;43.514;1.502;2023-07-30T06:41:16;4.40;;;1.47;;
78871;SDS011;68247;43.514;1.502;2023-07-30T06:43:41;6.68;;;2.10;;
78871;SDS011;68247;43.514;1.502;2023-07-30T06:46:06;3.47;;;1.60;;
78871;SDS011;68247;43.514;1.502;2023-07-30T06:48:32;3.43;;;1.60;;
78871;SDS011;68247;43.514;1.502;2023-07-30T06:50:57;4.43;;;1.63;;
78871;SDS011;68247;43.514;1.502;2023-07-30T06:53:23;5.87;;;1.90;;
78871;SDS011;68247;43.514;1.502;2023-07-30T06:55:48;3.63;;;1.30;;
78871;SDS011;68247;43.514;1.502;2023-07-30T06:58:14;6.80;;;1.63;;
78871;SDS011;68247;43.514;1.502;2023-07-30T07:00:39;4.73;;;1.50;;
78871;SDS011;68247;43.514;1.502;2023-07-30T07:03:05;5.10;;;1.67;;
78871;SDS011;68247;43.514;1.502;2023-07-30T07:05:30;3.63;;;1.60;;
78871;SDS011;68247;43.514;1.502;2023-07-30T07:07:56;5.10;;;1.67;;
78871;SDS011;68247;43.514;1.502;2023-07-30T07:10:21;5.40;;;2.10;;
78871;SDS011;68247;43.514;1.502;2023-07-30T07:12:46;3.58;;;1.90;;
78871;SDS011;68247;43.514;1.502;2023-07-30T07:15:12;5.33;;;1.90;;
78871;SDS011;68247;43.514;1.502;2023-07-30T07:17:38;5.33;;;1.80;;
78871;SDS011;68247;43.514;1.502;2023-07-30T07:20:04;5.30;;;1.67;;
78871;SDS011;68247;43.514;1.502;2023-07-30T07:22:31;6.28;;;1.80;;
78871;SDS011;68247;43.514;1.502;2023-07-30T07:24:57;4.23;;;2.03;;
78871;SDS011;68247;43.514;1.502;2023-07-30T07:27:22;4.73;;;2.10;;
78871;SDS011;68247;43.514;1.502;2023-07-30T07:29:49;5.70;;;1.80;;
78871;SDS011;68247;43.514;1.502;2023-07-30T07:32:15;5.57;;;1.90;;
78871;SDS011;68247;43.514;1.502;2023-07-30T07:34:40;4.27;;;1.53;;
78871;SDS011;68247;43.514;1.502;2023-07-30T07:37:06;5.30;;;1.73;;
78871;SDS011;68247;43.514;1.502;2023-07-30T07:39:32;3.60;;;1.50;;
78871;SDS011;68247;43.514;1.502;2023-07-30T07:41:58;9.87;;;1.70;;
78871;SDS011;68247;43.514;1.502;2023-07-30T07:44:24;4.35;;;1.80;;
78871;SDS011;68247;43.514;1.502;2023-07-30T07:46:49;3.80;;;1.53;;
78871;SDS011;68247;43.514;1.502;2023-07-30T07:49:14;4.27;;;1.40;;
78871;SDS011;68247;43.514;1.502;2023-07-30T07:51:40;5.43;;;1.80;;
78871;SDS011;68247;43.514;1.502;2023-07-30T07:54:05;4.68;;;1.50;;
78871;SDS011;68247;43.514;1.502;2023-07-30T07:56:31;3.37;;;1.40;;
78871;SDS011;68247;43.514;1.502;2023-07-30T07:58:57;4.67;;;1.70;;
78871;SDS011;68247;43.514;1.502;2023-07-30T08:01:23;4.03;;;1.50;;
78871;SDS011;68247;43.514;1.502;2023-07-30T08:03:48;5.00;;;1.30;;
78871;SDS011;68247;43.514;1.502;2023-07-30T08:06:14;5.32;;;1.55;;
78871;SDS011;68247;43.514;1.502;2023-07-30T08:08:39;5.43;;;1.70;;
78871;SDS011;68247;43.514;1.502;2023-07-30T08:11:08;10.13;;;1.77;;
78871;SDS011;68247;43.514;1.502;2023-07-30T08:13:34;3.80;;;1.77;;
78871;SDS011;68247;43.514;1.502;2023-07-30T08:15:59;5.78;;;1.77;;
78871;SDS011;68247;43.514;1.502;2023-07-30T08:18:25;4.27;;;1.30;;
78871;SDS011;68247;43.514;1.502;2023-07-30T08:20:51;6.28;;;1.85;;
78871;SDS011;68247;43.514;1.502;2023-07-30T08:23:16;5.73;;;1.80;;
78871;SDS011;68247;43.514;1.502;2023-07-30T08:25:41;6.87;;;1.80;;
78871;SDS011;68247;43.514;1.502;2023-07-30T08:28:07;5.07;;;1.70;;
78871;SDS011;68247;43.514;1.502;2023-07-30T08:30:32;4.43;;;1.60;;
78871;SDS011;68247;43.514;1.502;2023-07-30T08:32:58;4.23;;;1.70;;
78871;SDS011;68247;43.514;1.502;2023-07-30T08:35:23;4.97;;;1.90;;
78871;SDS011;68247;43.514;1.502;2023-07-30T08:37:49;6.07;;;1.63;;
78871;SDS011;68247;43.514;1.502;2023-07-30T08:40:14;6.30;;;2.30;;
78871;SDS011;68247;43.514;1.502;2023-07-30T08:42:40;4.00;;;1.63;;
78871;SDS011;68247;43.514;1.502;2023-07-30T08:45:06;6.22;;;2.00;;
78871;SDS011;68247;43.514;1.502;2023-07-30T08:47:33;6.13;;;1.83;;
78871;SDS011;68247;43.514;1.502;2023-07-30T08:49:59;5.47;;;1.90;;
78871;SDS011;68247;43.514;1.502;2023-07-30T08:52:24;3.90;;;1.83;;
78871;SDS011;68247;43.514;1.502;2023-07-30T08:54:50;5.03;;;2.10;;
78871;SDS011;68247;43.514;1.502;2023-07-30T08:57:16;6.55;;;1.77;;
78871;SDS011;68247;43.514;1.502;2023-07-30T08:59:54;4.87;;;1.70;;
78871;SDS011;68247;43.514;1.502;2023-07-30T09:02:32;4.93;;;1.70;;
78871;SDS011;68247;43.514;1.502;2023-07-30T09:05:07;5.53;;;2.20;;
78871;SDS011;68247;43.514;1.502;2023-07-30T09:07:32;5.73;;;2.00;;
78871;SDS011;68247;43.514;1.502;2023-07-30T09:09:58;6.63;;;1.90;;
78871;SDS011;68247;43.514;1.502;2023-07-30T09:12:30;5.20;;;1.70;;
78871;SDS011;68247;43.514;1.502;2023-07-30T09:14:56;5.68;;;2.08;;
78871;SDS011;68247;43.514;1.502;2023-07-30T09:17:21;4.87;;;1.60;;
78871;SDS011;68247;43.514;1.502;2023-07-30T09:19:47;3.67;;;1.65;;
78871;SDS011;68247;43.514;1.502;2023-07-30T09:22:12;4.07;;;1.63;;
78871;SDS011;68247;43.514;1.502;2023-07-30T09:24:44;4.88;;;1.70;;
78871;SDS011;68247;43.514;1.502;2023-07-30T09:27:10;5.15;;;2.00;;
78871;SDS011;68247;43.514;1.502;2023-07-30T09:29:35;5.60;;;1.80;;
78871;SDS011;68247;43.514;1.502;2023-07-30T09:32:01;5.90;;;2.03;;
78871;SDS011;68247;43.514;1.502;2023-07-30T09:34:26;6.60;;;2.00;;
78871;SDS011;68247;43.514;1.502;2023-07-30T09:36:52;6.33;;;1.87;;
78871;SDS011;68247;43.514;1.502;2023-07-30T09:39:19;8.65;;;2.17;;
78871;SDS011;68247;43.514;1.502;2023-07-30T09:41:46;6.27;;;1.97;;
78871;SDS011;68247;43.514;1.502;2023-07-30T09:44:12;5.55;;;1.80;;
78871;SDS011;68247;43.514;1.502;2023-07-30T09:46:42;7.18;;;2.10;;
78871;SDS011;68247;43.514;1.502;2023-07-30T09:49:08;6.20;;;1.90;;
78871;SDS011;68247;43.514;1.502;2023-07-30T09:51:34;8.97;;;2.40;;
78871;SDS011;68247;43.514;1.502;2023-07-30T09:54:05;5.30;;;1.67;;
78871;SDS011;68247;43.514;1.502;2023-07-30T09:56:38;5.07;;;1.92;;
78871;SDS011;68247;43.514;1.502;2023-07-30T09:59:05;5.43;;;2.10;;
78871;SDS011;68247;43.514;1.502;2023-07-30T10:01:31;6.53;;;2.42;;
78871;SDS011;68247;43.514;1.502;2023-07-30T10:03:58;5.05;;;2.05;;
78871;SDS011;68247;43.514;1.502;2023-07-30T10:06:25;5.07;;;1.77;;
78871;SDS011;68247;43.514;1.502;2023-07-30T10:08:53;9.27;;;2.10;;
78871;SDS011;68247;43.514;1.502;2023-07-30T10:11:20;5.78;;;1.80;;
78871;SDS011;68247;43.514;1.502;2023-07-30T10:13:46;3.57;;;1.53;;
78871;SDS011;68247;43.514;1.502;2023-07-30T10:16:12;7.13;;;1.83;;
78871;SDS011;68247;43.514;1.502;2023-07-30T10:18:38;7.47;;;1.83;;
78871;SDS011;68247;43.514;1.502;2023-07-30T10:21:05;5.10;;;2.08;;
78871;SDS011;68247;43.514;1.502;2023-07-30T10:23:33;5.20;;;1.92;;
78871;SDS011;68247;43.514;1.502;2023-07-30T10:25:58;4.63;;;1.90;;
78871;SDS011;68247;43.514;1.502;2023-07-30T10:30:57;5.13;;;2.00;;
78871;SDS011;68247;43.514;1.502;2023-07-30T10:33:24;6.43;;;1.90;;
78871;SDS011;68247;43.514;1.502;2023-07-30T10:36:31;5.03;;;1.90;;
78871;SDS011;68247;43.514;1.502;2023-07-30T10:39:00;5.05;;;1.80;;
78871;SDS011;68247;43.514;1.502;2023-07-30T10:41:56;6.45;;;2.40;;
78871;SDS011;68247;43.514;1.502;2023-07-30T10:44:32;5.55;;;2.25;;
78871;SDS011;68247;43.514;1.502;2023-07-30T10:46:59;4.50;;;1.70;;
78871;SDS011;68247;43.514;1.502;2023-07-30T10:49:25;5.00;;;1.90;;
78871;SDS011;68247;43.514;1.502;2023-07-30T10:51:56;5.28;;;2.03;;
78871;SDS011;68247;43.514;1.502;2023-07-30T10:54:25;5.78;;;2.20;;
78871;SDS011;68247;43.514;1.502;2023-07-30T10:56:50;4.60;;;2.20;;
78871;SDS011;68247;43.514;1.502;2023-07-30T10:59:17;5.28;;;1.98;;
78871;SDS011;68247;43.514;1.502;2023-07-30T11:01:43;5.45;;;1.92;;
78871;SDS011;68247;43.514;1.502;2023-07-30T11:04:19;5.72;;;2.03;;
78871;SDS011;68247;43.514;1.502;2023-07-30T11:06:46;4.80;;;2.20;;
78871;SDS011;68247;43.514;1.502;2023-07-30T11:09:20;5.18;;;1.95;;
78871;SDS011;68247;43.514;1.502;2023-07-30T11:11:47;6.78;;;2.10;;
78871;SDS011;68247;43.514;1.502;2023-07-30T11:14:16;6.50;;;2.10;;
78871;SDS011;68247;43.514;1.502;2023-07-30T11:16:49;6.80;;;2.00;;
78871;SDS011;68247;43.514;1.502;2023-07-30T11:19:16;5.75;;;2.08;;
78871;SDS011;68247;43.514;1.502;2023-07-30T11:21:48;5.82;;;2.03;;
78871;SDS011;68247;43.514;1.502;2023-07-30T11:24:15;7.78;;;2.30;;
78871;SDS011;68247;43.514;1.502;2023-07-30T11:26:41;5.47;;;2.07;;
78871;SDS011;68247;43.514;1.502;2023-07-30T11:29:14;4.80;;;2.08;;
78871;SDS011;68247;43.514;1.502;2023-07-30T11:31:46;5.85;;;2.25;;
78871;SDS011;68247;43.514;1.502;2023-07-30T11:34:15;6.03;;;2.50;;
78871;SDS011;68247;43.514;1.502;2023-07-30T11:36:43;5.20;;;2.13;;
78871;SDS011;68247;43.514;1.502;2023-07-30T11:39:09;4.22;;;2.00;;
78871;SDS011;68247;43.514;1.502;2023-07-30T11:41:35;4.97;;;2.17;;
78871;SDS011;68247;43.514;1.502;2023-07-30T11:44:00;5.63;;;2.00;;
78871;SDS011;68247;43.514;1.502;2023-07-30T11:46:26;5.00;;;2.30;;
78871;SDS011;68247;43.514;1.502;2023-07-30T11:48:52;4.78;;;2.00;;
78871;SDS011;68247;43.514;1.502;2023-07-30T11:51:23;6.87;;;2.00;;
78871;SDS011;68247;43.514;1.502;2023-07-30T11:53:51;4.90;;;1.80;;
78871;SDS011;68247;43.514;1.502;2023-07-30T11:56:21;5.65;;;1.88;;
78871;SDS011;68247;43.514;1.502;2023-07-30T11:58:52;7.03;;;2.67;;
78871;SDS011;68247;43.514;1.502;2023-07-30T12:01:22;5.20;;;2.50;;
78871;SDS011;68247;43.514;1.502;2023-07-30T12:03:49;4.27;;;1.80;;
78871;SDS011;68247;43.514;1.502;2023-07-30T12:06:15;6.40;;;2.13;;
78871;SDS011;68247;43.514;1.502;2023-07-30T12:08:40;4.47;;;2.20;;
78871;SDS011;68247;43.514;1.502;2023-07-30T12:11:06;5.27;;;2.80;;
78871;SDS011;68247;43.514;1.502;2023-07-30T12:13:33;5.47;;;2.40;;
78871;SDS011;68247;43.514;1.502;2023-07-30T12:15:59;4.97;;;2.08;;
78871;SDS011;68247;43.514;1.502;2023-07-30T12:18:25;5.30;;;2.30;;
78871;SDS011;68247;43.514;1.502;2023-07-30T12:20:51;4.82;;;2.58;;
78871;SDS011;68247;43.514;1.502;2023-07-30T12:23:18;4.82;;;2.50;;
78871;SDS011;68247;43.514;1.502;2023-07-30T12:25:44;4.53;;;2.60;;
78871;SDS011;68247;43.514;1.502;2023-07-30T12:28:10;4.93;;;2.60;;
78871;SDS011;68247;43.514;1.502;2023-07-30T12:30:35;4.10;;;2.20;;
78871;SDS011;68247;43.514;1.502;2023-07-30T12:33:02;6.07;;;2.55;;
78871;SDS011;68247;43.514;1.502;2023-07-30T12:35:28;5.60;;;2.60;;
78871;SDS011;68247;43.514;1.502;2023-07-30T12:37:54;7.03;;;2.40;;
78871;SDS011;68247;43.514;1.502;2023-07-30T12:40:20;6.60;;;2.67;;
78871;SDS011;68247;43.514;1.502;2023-07-30T12:42:45;5.30;;;2.60;;
78871;SDS011;68247;43.514;1.502;2023-07-30T12:45:10;5.13;;;2.20;;
78871;SDS011;68247;43.514;1.502;2023-07-30T12:47:36;5.00;;;2.40;;
78871;SDS011;68247;43.514;1.502;2023-07-30T12:50:02;4.73;;;2.33;;
78871;SDS011;68247;43.514;1.502;2023-07-30T12:52:28;5.90;;;2.70;;
78871;SDS011;68247;43.514;1.502;2023-07-30T12:54:54;4.25;;;2.20;;
78871;SDS011;68247;43.514;1.502;2023-07-30T12:57:19;5.17;;;2.70;;
78871;SDS011;68247;43.514;1.502;2023-07-30T12:59:45;5.77;;;2.80;;
78871;SDS011;68247;43.514;1.502;2023-07-30T13:02:10;4.70;;;2.15;;
78871;SDS011;68247;43.514;1.502;2023-07-30T13:04:36;4.40;;;2.40;;
78871;SDS011;68247;43.514;1.502;2023-07-30T13:07:01;5.00;;;2.57;;
78871;SDS011;68247;43.514;1.502;2023-07-30T13:09:27;5.72;;;2.95;;
78871;SDS011;68247;43.514;1.502;2023-07-30T13:11:53;4.40;;;2.60;;
78871;SDS011;68247;43.514;1.502;2023-07-30T13:14:19;6.00;;;2.40;;
78871;SDS011;68247;43.514;1.502;2023-07-30T13:16:45;5.10;;;2.30;;
78871;SDS011;68247;43.514;1.502;2023-07-30T13:19:10;3.55;;;2.15;;
78871;SDS011;68247;43.514;1.502;2023-07-30T13:21:37;5.37;;;2.50;;
78871;SDS011;68247;43.514;1.502;2023-07-30T13:24:02;4.22;;;2.35;;
78871;SDS011;68247;43.514;1.502;2023-07-30T13:26:28;5.13;;;2.60;;
78871;SDS011;68247;43.514;1.502;2023-07-30T13:28:53;4.78;;;2.30;;
78871;SDS011;68247;43.514;1.502;2023-07-30T13:31:19;4.60;;;2.23;;
78871;SDS011;68247;43.514;1.502;2023-07-30T13:33:44;5.13;;;2.20;;
78871;SDS011;68247;43.514;1.502;2023-07-30T13:36:12;5.57;;;2.38;;
78871;SDS011;68247;43.514;1.502;2023-07-30T13:38:38;4.00;;;2.60;;
78871;SDS011;68247;43.514;1.502;2023-07-30T13:41:04;4.80;;;2.58;;
78871;SDS011;68247;43.514;1.502;2023-07-30T13:43:30;5.40;;;2.33;;
78871;SDS011;68247;43.514;1.502;2023-07-30T13:45:56;5.57;;;2.60;;
78871;SDS011;68247;43.514;1.502;2023-07-30T13:48:23;4.53;;;2.15;;
78871;SDS011;68247;43.514;1.502;2023-07-30T13:50:49;5.50;;;2.58;;
78871;SDS011;68247;43.514;1.502;2023-07-30T13:53:15;4.03;;;2.40;;
78871;SDS011;68247;43.514;1.502;2023-07-30T13:55:40;4.83;;;2.77;;
78871;SDS011;68247;43.514;1.502;2023-07-30T13:58:05;5.82;;;2.55;;
78871;SDS011;68247;43.514;1.502;2023-07-30T14:00:31;5.17;;;2.57;;
78871;SDS011;68247;43.514;1.502;2023-07-30T14:02:56;5.27;;;2.60;;
78871;SDS011;68247;43.514;1.502;2023-07-30T14:05:22;4.50;;;2.10;;
78871;SDS011;68247;43.514;1.502;2023-07-30T14:07:48;4.72;;;1.92;;
78871;SDS011;68247;43.514;1.502;2023-07-30T14:10:15;5.53;;;2.75;;
78871;SDS011;68247;43.514;1.502;2023-07-30T14:12:40;4.43;;;2.43;;
78871;SDS011;68247;43.514;1.502;2023-07-30T14:15:06;4.97;;;2.87;;
78871;SDS011;68247;43.514;1.502;2023-07-30T14:17:32;4.85;;;2.75;;
78871;SDS011;68247;43.514;1.502;2023-07-30T14:19:57;4.53;;;2.33;;
78871;SDS011;68247;43.514;1.502;2023-07-30T14:22:23;3.90;;;2.77;;
78871;SDS011;68247;43.514;1.502;2023-07-30T14:24:48;4.40;;;2.53;;
78871;SDS011;68247;43.514;1.502;2023-07-30T14:27:14;3.90;;;2.20;;
78871;SDS011;68247;43.514;1.502;2023-07-30T14:29:40;4.68;;;2.30;;
78871;SDS011;68247;43.514;1.502;2023-07-30T14:32:05;4.20;;;2.70;;
78871;SDS011;68247;43.514;1.502;2023-07-30T14:34:31;5.68;;;2.50;;
78871;SDS011;68247;43.514;1.502;2023-07-30T14:36:56;4.70;;;2.30;;
78871;SDS011;68247;43.514;1.502;2023-07-30T14:39:22;5.00;;;1.80;;
78871;SDS011;68247;43.514;1.502;2023-07-30T14:41:47;4.28;;;2.10;;
78871;SDS011;68247;43.514;1.502;2023-07-30T14:44:13;4.73;;;2.17;;